Time;durP1;ratioP1;P1;durP2;ratioP2;P2;SDS_P1;SDS_P2;PMS_P1;PMS_P2;Temp;Humidity;BMP_temperature;BMP_pressure;BME280_temperature;BME280_humidity;BME280_pressure;Samples;Min_cycle;Max_cycle;Signal;HPM_P1;HPM_P2
2023/12/11 00:01:34;;;;;;;6.65;2.40;;;;;;;-8.61;66.55;100833.19;5015841;28;20204;-58
2023/12/11 00:04:05;;;;;;;4.03;1.60;;;;;;;-8.71;65.74;100829.16;5027266;28;20049;-59
2023/12/11 00:06:35;;;;;;;5.40;2.25;;;;;;;-8.73;65.61;100834.13;5016388;28;20105;-59
2023/12/11 00:09:08;;;;;;;6.00;1.80;;;;;;;-8.49;66.00;100849.25;5027147;28;20071;-59
2023/12/11 00:11:38;;;;;;;3.67;1.60;;;;;;;-8.33;65.48;100846.97;5017249;28;20442;-59
2023/12/11 00:14:09;;;;;;;5.45;1.70;;;;;;;-8.40;64.71;100834.69;5027140;28;20114;-59
2023/12/11 00:16:40;;;;;;;13.88;2.03;;;;;;;-8.40;64.24;100849.91;5017428;28;20056;-59
2023/12/11 00:19:10;;;;;;;3.28;1.83;;;;;;;-8.31;64.64;100855.56;5027195;28;20061;-58
2023/12/11 00:21:42;;;;;;;6.65;2.08;;;;;;;-8.18;64.62;100856.41;5017351;28;20048;-58
2023/12/11 00:24:14;;;;;;;2.65;1.60;;;;;;;-8.10;63.84;100855.25;5028704;28;20048;-58
2023/12/11 00:26:44;;;;;;;3.05;1.90;;;;;;;-8.00;63.58;100865.25;5024024;28;20131;-58
2023/12/11 00:29:16;;;;;;;7.05;2.22;;;;;;;-8.12;61.93;100861.88;5034778;28;20148;-58
2023/12/11 00:31:46;;;;;;;5.90;1.85;;;;;;;-8.08;62.47;100863.88;5024706;28;20119;-58
2023/12/11 00:34:17;;;;;;;2.88;1.90;;;;;;;-8.04;61.61;100860.72;5037570;28;20056;-58
2023/12/11 00:36:48;;;;;;;6.97;1.83;;;;;;;-8.05;60.95;100869.13;5019525;28;20057;-58
2023/12/11 00:39:20;;;;;;;4.95;1.70;;;;;;;-7.95;61.08;100871.50;5025711;28;21231;-59
2023/12/11 00:41:51;;;;;;;2.95;2.15;;;;;;;-7.75;62.39;100869.44;5016714;28;20049;-59
2023/12/11 00:44:22;;;;;;;8.13;1.70;;;;;;;-7.55;61.38;100869.06;5027320;28;20057;-58
2023/12/11 00:46:52;;;;;;;3.03;1.90;;;;;;;-7.58;60.89;100863.81;5009063;28;20073;-58
2023/12/11 00:49:23;;;;;;;2.97;1.75;;;;;;;-7.60;59.79;100872.97;5027840;28;20053;-58
2023/12/11 00:51:54;;;;;;;3.53;1.75;;;;;;;-7.58;59.92;100879.03;5018118;28;20067;-57
2023/12/11 00:54:26;;;;;;;3.35;1.77;;;;;;;-7.44;58.86;100868.13;5027875;28;20135;-58
2023/12/11 00:56:57;;;;;;;5.60;2.08;;;;;;;-7.24;59.53;100871.06;5015602;28;20044;-59
2023/12/11 00:59:27;;;;;;;4.55;1.70;;;;;;;-7.03;59.72;100872.44;5016440;28;20040;-58
2023/12/11 01:01:58;;;;;;;7.00;2.70;;;;;;;-6.78;60.77;100871.47;5029399;28;20045;-58
2023/12/11 01:04:29;;;;;;;7.40;1.92;;;;;;;-6.53;60.83;100877.28;5017575;28;20064;-58
2023/12/11 01:06:59;;;;;;;2.25;1.70;;;;;;;-6.56;60.12;100876.22;5023462;28;20140;-58
2023/12/11 01:09:32;;;;;;;3.47;2.20;;;;;;;-6.52;60.32;100888.31;5018708;28;20059;-59
2023/12/11 01:12:02;;;;;;;4.50;1.90;;;;;;;-6.89;59.06;100874.97;5028493;28;20503;-59
2023/12/11 01:14:33;;;;;;;4.15;1.92;;;;;;;-6.86;60.17;100886.22;5012083;28;20048;-59
2023/12/11 01:17:04;;;;;;;3.55;1.85;;;;;;;-6.79;60.46;100892.56;5027691;28;20379;-59
2023/12/11 01:19:55;;;;;;;5.03;1.42;;;;;;;-7.03;57.42;100877.53;5019869;28;20055;-59
2023/12/11 01:22:25;;;;;;;4.88;1.98;;;;;;;-7.19;60.76;100884.94;5025171;28;20049;-59
2023/12/11 01:25:01;;;;;;;5.82;1.92;;;;;;;-7.13;60.90;100885.34;5022611;28;20052;-59
2023/12/11 01:27:32;;;;;;;4.35;1.50;;;;;;;-7.16;60.70;100869.91;5014149;28;20056;-58
2023/12/11 01:30:03;;;;;;;4.90;2.13;;;;;;;-7.19;61.64;100879.84;5030326;28;20049;-58
2023/12/11 01:32:33;;;;;;;2.92;1.98;;;;;;;-7.08;62.54;100876.34;5017347;28;20055;-58
2023/12/11 01:35:04;;;;;;;2.38;1.60;;;;;;;-7.71;62.30;100759.72;5027246;28;20084;-58
2023/12/11 01:37:34;;;;;;;4.10;2.17;;;;;;;-7.16;62.74;100859.75;5017026;28;20127;-58
2023/12/11 01:40:09;;;;;;;2.92;1.83;;;;;;;-6.95;62.82;100858.56;5028948;28;20065;-58
2023/12/11 01:42:40;;;;;;;3.75;2.13;;;;;;;-6.80;64.17;100852.69;5007610;28;20424;-59
2023/12/11 01:45:11;;;;;;;2.17;1.52;;;;;;;-6.80;63.30;100851.03;5024751;28;20136;-56
2023/12/11 01:47:42;;;;;;;2.17;1.63;;;;;;;-6.81;63.38;100848.41;5016868;28;20620;-56
2023/12/11 01:50:13;;;;;;;3.35;1.60;;;;;;;-6.62;63.43;100840.25;5028360;28;20421;-58
2023/12/11 01:52:43;;;;;;;3.08;2.15;;;;;;;-6.26;63.04;100840.72;5014645;28;20049;-58
2023/12/11 01:55:15;;;;;;;2.80;1.70;;;;;;;-5.83;63.27;100853.44;5026933;28;20114;-58
2023/12/11 01:57:46;;;;;;;3.80;1.75;;;;;;;-5.53;62.65;100845.00;5016403;28;20542;-58
2023/12/11 02:00:18;;;;;;;4.25;1.80;;;;;;;-5.33;61.48;100848.69;5027430;28;21360;-58
2023/12/11 02:02:48;;;;;;;4.32;1.95;;;;;;;-5.30;61.41;100843.75;5012716;28;20788;-58
2023/12/11 02:05:19;;;;;;;3.05;1.77;;;;;;;-5.23;61.37;100850.97;5027752;28;20049;-58
2023/12/11 02:07:50;;;;;;;3.35;1.67;;;;;;;-5.76;59.63;100856.41;5022592;28;20068;-58
2023/12/11 02:10:22;;;;;;;4.50;1.60;;;;;;;-6.03;60.73;100867.56;5030147;28;20059;-58
2023/12/11 02:12:53;;;;;;;2.85;1.40;;;;;;;-6.20;61.66;100849.59;5021157;28;20057;-59
2023/12/11 02:15:39;;;;;;;3.60;1.50;;;;;;;-6.13;61.73;100869.53;5031659;28;20048;-58
2023/12/11 02:18:11;;;;;;;5.15;2.20;;;;;;;-6.08;62.93;100847.78;5031501;28;20489;-56
2023/12/11 02:20:43;;;;;;;3.58;1.60;;;;;;;-6.09;63.22;100866.41;5018042;28;20049;-58
2023/12/11 02:23:22;;;;;;;5.18;1.83;;;;;;;-6.17;63.76;100877.75;5030103;28;20151;-58
2023/12/11 02:26:05;;;;;;;2.78;1.60;;;;;;;-6.53;64.08;100877.28;5023336;28;20064;-58
2023/12/11 02:28:36;;;;;;;2.55;1.50;;;;;;;-6.77;65.22;100875.75;5018970;28;20131;-58
2023/12/11 02:31:07;;;;;;;2.90;1.85;;;;;;;-6.65;66.15;100870.56;5028483;28;20577;-58
2023/12/11 02:33:38;;;;;;;4.32;2.13;;;;;;;-6.63;66.25;100864.78;5018421;28;20525;-58
2023/12/11 02:36:09;;;;;;;3.00;1.90;;;;;;;-6.61;66.00;100875.06;5028969;28;20140;-58
2023/12/11 02:38:40;;;;;;;4.43;1.85;;;;;;;-6.65;63.72;100873.09;5017651;28;20510;-59
2023/12/11 02:41:12;;;;;;;1.90;1.67;;;;;;;-6.68;63.34;100880.53;5030797;28;20147;-58
2023/12/11 02:43:43;;;;;;;4.57;1.77;;;;;;;-6.72;63.16;100879.44;5021017;28;20047;-59
2023/12/11 02:46:14;;;;;;;3.58;1.90;;;;;;;-6.80;62.03;100870.47;5030832;28;20588;-58
2023/12/11 02:48:44;;;;;;;1.85;1.40;;;;;;;-6.83;60.80;100893.16;5019932;28;20057;-58
2023/12/11 02:51:17;;;;;;;2.75;1.67;;;;;;;-7.06;58.26;100887.50;5029386;28;20056;-58
2023/12/11 02:53:48;;;;;;;3.30;1.80;;;;;;;-7.21;59.06;100896.69;5018660;28;20080;-58
2023/12/11 02:56:20;;;;;;;4.50;1.80;;;;;;;-7.23;59.00;100890.63;5025837;28;20217;-58
2023/12/11 02:58:51;;;;;;;3.40;1.92;;;;;;;-7.33;59.40;100880.66;5015658;28;20060;-58
2023/12/11 03:01:21;;;;;;;2.65;1.70;;;;;;;-7.38;59.11;100893.91;5030320;28;20056;-58
2023/12/11 03:03:52;;;;;;;3.25;2.15;;;;;;;-7.07;60.56;100885.72;5020866;28;20061;-58
2023/12/11 03:06:23;;;;;;;2.88;1.55;;;;;;;-6.91;60.28;100881.63;5029328;28;20068;-58
2023/12/11 03:08:53;;;;;;;8.18;1.80;;;;;;;-7.00;59.42;100887.88;5021324;28;20117;-58
2023/12/11 03:11:26;;;;;;;2.65;1.80;;;;;;;-6.99;59.81;100892.19;5028230;28;20053;-58
2023/12/11 03:13:56;;;;;;;3.45;1.73;;;;;;;-6.83;59.90;100890.63;5016400;28;20060;-58
2023/12/11 03:16:27;;;;;;;3.00;1.55;;;;;;;-6.58;59.78;100899.00;5018936;28;20057;-58
2023/12/11 03:18:58;;;;;;;6.35;2.47;;;;;;;-6.56;60.13;100897.44;5028067;28;20465;-58
2023/12/11 03:21:28;;;;;;;1.92;1.52;;;;;;;-6.65;57.23;100876.50;5020622;28;20071;-58
2023/12/11 03:23:59;;;;;;;2.63;1.50;;;;;;;-6.33;57.83;100901.38;5027640;28;20057;-58
2023/12/11 03:26:31;;;;;;;5.30;1.80;;;;;;;-5.98;57.32;100901.78;5016789;28;20044;-58
2023/12/11 03:29:02;;;;;;;3.08;1.50;;;;;;;-6.26;56.47;100907.75;5030068;28;20049;-58
2023/12/11 03:31:32;;;;;;;3.38;1.60;;;;;;;-6.80;57.66;100911.13;5018187;28;20550;-59
2023/12/11 03:34:03;;;;;;;2.42;1.42;;;;;;;-6.76;57.97;100877.53;5025342;28;20040;-58
2023/12/11 03:36:34;;;;;;;3.05;1.85;;;;;;;-6.47;58.34;100901.31;5007399;28;20137;-58
2023/12/11 03:39:07;;;;;;;3.15;1.85;;;;;;;-6.71;59.13;100886.31;5030956;28;20079;-58
2023/12/11 03:41:40;;;;;;;4.38;1.77;;;;;;;-6.26;59.88;100877.22;5018125;28;20159;-57
2023/12/11 03:44:10;;;;;;;3.38;1.58;;;;;;;-6.25;57.86;100889.13;5023099;28;20046;-58
2023/12/11 03:46:41;;;;;;;3.60;1.70;;;;;;;-6.32;57.96;100889.53;5016164;28;20127;-58
2023/12/11 03:49:16;;;;;;;7.03;2.00;;;;;;;-6.47;58.42;100843.72;5030257;28;20107;-59
2023/12/11 03:51:47;;;;;;;4.25;2.00;;;;;;;-6.30;58.44;100845.63;5016754;28;20039;-59
2023/12/11 03:54:18;;;;;;;4.88;1.92;;;;;;;-5.83;58.65;100889.06;5026140;28;20052;-58
2023/12/11 03:56:51;;;;;;;2.75;1.80;;;;;;;-5.64;59.22;100918.25;5016063;28;20053;-58
2023/12/11 03:59:23;;;;;;;3.58;1.75;;;;;;;-5.51;59.21;100922.38;5026982;28;20041;-58
2023/12/11 04:01:54;;;;;;;3.20;1.98;;;;;;;-6.20;54.99;100933.53;5011330;28;20052;-59
2023/12/11 04:04:24;;;;;;;3.88;1.60;;;;;;;-7.15;56.16;100932.63;5026274;28;20851;-58
2023/12/11 04:06:55;;;;;;;3.60;1.75;;;;;;;-7.66;57.73;100936.00;5016503;28;20533;-58
2023/12/11 04:09:27;;;;;;;3.55;1.50;;;;;;;-7.89;59.85;100940.38;5025545;28;20053;-58
2023/12/11 04:11:59;;;;;;;3.50;1.90;;;;;;;-7.52;61.09;100950.50;5025387;28;21059;-58
2023/12/11 04:14:29;;;;;;;6.03;2.50;;;;;;;-7.20;62.15;100939.94;5015959;28;20059;-59
2023/12/11 04:17:00;;;;;;;2.92;1.50;;;;;;;-6.95;61.68;100937.31;5019823;28;20062;-59
2023/12/11 04:19:31;;;;;;;11.52;5.38;;;;;;;-6.76;61.27;100944.47;5019821;28;20133;-58
2023/12/11 04:22:02;;;;;;;8.38;3.35;;;;;;;-6.79;60.28;100964.63;5029498;28;20049;-59
2023/12/11 04:24:32;;;;;;;5.07;2.20;;;;;;;-6.73;59.95;100953.94;5014076;28;20048;-59
2023/12/11 04:27:05;;;;;;;12.40;4.65;;;;;;;-6.91;59.95;100948.56;5028677;28;20049;-59
2023/12/11 04:29:36;;;;;;;3.10;1.88;;;;;;;-6.92;60.06;100951.00;5015410;28;20067;-59
2023/12/11 04:32:07;;;;;;;6.45;2.22;;;;;;;-7.08;59.22;100960.19;5027723;28;20064;-59
2023/12/11 04:34:38;;;;;;;6.15;2.90;;;;;;;-7.30;59.60;100962.09;5017757;28;20131;-58
2023/12/11 04:37:08;;;;;;;5.00;2.75;;;;;;;-7.28;60.19;100965.63;5023816;28;20675;-58
2023/12/11 04:39:39;;;;;;;4.65;2.20;;;;;;;-7.20;60.71;100969.53;5011565;28;20614;-58
2023/12/11 04:42:11;;;;;;;3.47;2.30;;;;;;;-7.21;60.97;100967.78;5022807;28;20072;-58
2023/12/11 04:44:42;;;;;;;4.22;2.05;;;;;;;-7.26;60.87;100975.09;5012654;28;20048;-58
2023/12/11 04:47:12;;;;;;;3.42;1.88;;;;;;;-7.33;60.73;100969.50;5026474;28;20045;-59
2023/12/11 04:49:44;;;;;;;5.30;2.13;;;;;;;-7.25;61.21;100975.97;5015496;28;20455;-59
2023/12/11 04:52:24;;;;;;;5.93;2.03;;;;;;;-7.15;62.10;100973.25;5065994;27;20755;-59
2023/12/11 04:54:55;;;;;;;4.68;2.08;;;;;;;-7.23;61.66;100980.38;5051066;28;20109;-59
2023/12/11 04:57:25;;;;;;;3.13;2.10;;;;;;;-7.29;61.83;100989.22;5063537;28;20449;-58
2023/12/11 04:59:56;;;;;;;5.38;1.95;;;;;;;-7.33;62.34;100982.19;5032030;28;20049;-59
2023/12/11 05:02:27;;;;;;;4.30;2.20;;;;;;;-7.32;62.91;100978.88;5035208;28;20052;-58
2023/12/11 05:04:58;;;;;;;5.57;1.85;;;;;;;-7.59;63.12;100935.63;5042284;28;20493;-59
2023/12/11 05:07:30;;;;;;;4.95;2.10;;;;;;;-7.28;63.66;100991.00;5030712;28;20611;-58
2023/12/11 05:10:01;;;;;;;4.45;2.13;;;;;;;-7.23;64.31;100984.56;5062777;28;20056;-58
2023/12/11 05:12:31;;;;;;;6.05;2.35;;;;;;;-7.14;64.47;100995.31;5051126;28;20056;-58
2023/12/11 05:15:02;;;;;;;3.47;2.05;;;;;;;-7.08;64.79;100980.50;5064202;28;20052;-59
2023/12/11 05:17:33;;;;;;;8.43;3.65;;;;;;;-7.10;64.56;101007.44;5052794;28;20059;-58
2023/12/11 05:20:04;;;;;;;3.78;2.03;;;;;;;-7.19;64.33;100981.44;5063201;28;20410;-58
2023/12/11 05:22:36;;;;;;;3.05;1.90;;;;;;;-7.10;64.21;101006.56;5055140;28;20139;-58
2023/12/11 05:25:08;;;;;;;4.18;1.80;;;;;;;-7.12;64.71;101001.38;5062988;28;20109;-58
2023/12/11 05:27:39;;;;;;;2.25;1.80;;;;;;;-7.06;65.00;101004.34;5050759;28;20109;-58
2023/12/11 05:30:11;;;;;;;5.25;1.95;;;;;;;-6.86;65.70;101009.81;5063043;28;20128;-59
2023/12/11 05:32:42;;;;;;;4.80;2.25;;;;;;;-6.95;65.03;101002.50;5053552;28;20051;-59
2023/12/11 05:35:12;;;;;;;2.88;1.80;;;;;;;-7.20;64.86;101011.03;5064345;28;20052;-59
2023/12/11 05:37:45;;;;;;;6.78;2.30;;;;;;;-7.33;65.25;101012.66;5053702;28;20141;-58
2023/12/11 05:40:30;;;;;;;6.00;2.38;;;;;;;-7.37;65.82;101017.53;5061175;28;20072;-59
2023/12/11 05:43:01;;;;;;;4.20;2.22;;;;;;;-7.57;65.80;101022.91;5007878;28;20098;-58
2023/12/11 05:45:32;;;;;;;2.83;1.70;;;;;;;-7.72;66.15;101032.00;5032555;28;20957;-59
2023/12/11 05:48:02;;;;;;;3.55;1.73;;;;;;;-7.86;66.76;101046.31;5043642;28;20148;-59
2023/12/11 05:50:33;;;;;;;3.30;1.90;;;;;;;-7.99;67.15;101025.91;5050578;28;20056;-58
2023/12/11 05:53:07;;;;;;;3.72;1.90;;;;;;;-7.93;67.70;101037.38;5060664;28;20614;-59
2023/12/11 05:55:38;;;;;;;3.65;1.92;;;;;;;-7.93;68.18;101039.91;5050599;28;20048;-58
2023/12/11 05:58:08;;;;;;;2.92;1.80;;;;;;;-8.01;68.50;101046.09;5056093;28;20059;-58
2023/12/11 06:00:39;;;;;;;2.97;1.70;;;;;;;-8.05;68.40;101056.78;5051455;28;20475;-58
2023/12/11 06:03:10;;;;;;;3.75;1.92;;;;;;;-8.03;68.57;101060.31;5053329;28;20129;-59
2023/12/11 06:05:41;;;;;;;3.75;2.00;;;;;;;-8.10;69.15;101073.34;5022139;28;20063;-59
2023/12/11 06:08:13;;;;;;;5.03;2.10;;;;;;;-8.08;69.47;101071.81;5028665;28;20061;-59
2023/12/11 06:10:44;;;;;;;5.55;2.50;;;;;;;-8.11;69.56;101067.41;5017948;28;20052;-58
2023/12/11 06:13:14;;;;;;;3.00;1.90;;;;;;;-8.20;69.30;101078.53;5027636;28;20056;-59
2023/12/11 06:15:45;;;;;;;3.38;1.83;;;;;;;-8.27;69.28;101085.69;5014587;28;20053;-59
2023/12/11 06:18:16;;;;;;;3.85;2.10;;;;;;;-8.38;69.96;101085.69;5027127;28;20503;-59
2023/12/11 06:20:46;;;;;;;3.05;1.90;;;;;;;-8.55;70.09;101102.25;5020278;28;20064;-59
2023/12/11 06:23:19;;;;;;;6.47;1.92;;;;;;;-8.73;70.29;101101.78;5026940;28;20098;-58
2023/12/11 06:25:49;;;;;;;3.33;1.83;;;;;;;-8.81;70.87;101098.69;5023775;28;20125;-59
2023/12/11 06:28:20;;;;;;;3.45;2.30;;;;;;;-8.76;71.61;101110.03;5030234;28;20049;-58
2023/12/11 06:30:51;;;;;;;3.42;2.13;;;;;;;-8.70;72.14;101122.25;5018952;28;20134;-58
2023/12/11 06:33:22;;;;;;;4.03;2.13;;;;;;;-8.69;72.32;101124.88;5030675;28;20453;-59
2023/12/11 06:35:52;;;;;;;4.70;2.30;;;;;;;-8.79;72.59;101124.97;5027041;28;20170;-58
2023/12/11 06:38:24;;;;;;;4.22;2.42;;;;;;;-8.86;72.39;101125.31;5029741;28;20545;-59
2023/12/11 06:40:55;;;;;;;5.70;2.70;;;;;;;-8.92;71.69;101135.84;5016770;28;20080;-59
2023/12/11 06:43:26;;;;;;;4.30;2.28;;;;;;;-9.07;71.11;101128.75;5034906;28;20504;-58
2023/12/11 06:45:56;;;;;;;4.13;2.13;;;;;;;-9.01;71.34;101129.19;5026112;28;20213;-59
2023/12/11 06:48:27;;;;;;;8.82;4.32;;;;;;;-8.98;71.61;101132.88;5024201;28;20114;-58
2023/12/11 06:50:58;;;;;;;10.38;5.30;;;;;;;-8.63;73.74;101134.63;5028765;28;20320;-58
2023/12/11 06:53:30;;;;;;;14.85;5.78;;;;;;;-8.48;73.59;101124.75;5018928;28;20064;-58
2023/12/11 06:56:00;;;;;;;23.05;9.05;;;;;;;-8.65;72.16;101132.75;5029688;28;20045;-58
2023/12/11 06:58:31;;;;;;;12.57;6.55;;;;;;;-8.75;72.58;101134.59;5017982;28;20068;-58
2023/12/11 07:01:02;;;;;;;20.98;7.70;;;;;;;-9.27;73.49;101031.94;5029869;28;20064;-58
2023/12/11 07:03:34;;;;;;;17.85;7.60;;;;;;;-8.89;72.94;101130.13;5020073;28;20103;-58
2023/12/11 07:06:05;;;;;;;9.18;4.20;;;;;;;-9.07;73.16;101138.88;5027551;28;20140;-58
2023/12/11 07:08:38;;;;;;;6.38;3.08;;;;;;;-8.99;74.11;101137.81;5015803;28;20079;-58
2023/12/11 07:11:08;;;;;;;6.07;2.53;;;;;;;-8.79;74.29;101137.66;5028310;28;20103;-57
2023/12/11 07:13:41;;;;;;;6.10;2.72;;;;;;;-8.85;74.04;101137.19;5018675;28;20110;-58
2023/12/11 07:16:13;;;;;;;8.68;2.85;;;;;;;-8.98;73.79;101144.66;5029913;28;20552;-58
2023/12/11 07:18:44;;;;;;;7.00;2.92;;;;;;;-9.06;74.24;101140.63;5019326;28;20133;-58
2023/12/11 07:21:15;;;;;;;5.18;2.40;;;;;;;-8.99;74.72;101142.88;5029873;28;20463;-58
2023/12/11 07:23:48;;;;;;;5.32;2.70;;;;;;;-8.94;74.46;101156.75;5019969;28;20064;-58
2023/12/11 07:26:18;;;;;;;4.30;2.42;;;;;;;-8.90;74.27;101148.63;5029416;28;20045;-58
2023/12/11 07:28:49;;;;;;;4.28;2.50;;;;;;;-9.65;73.49;101050.16;5018511;28;20433;-58
2023/12/11 07:31:20;;;;;;;4.75;2.47;;;;;;;-9.12;73.56;101152.06;5029126;28;20052;-59
2023/12/11 07:33:50;;;;;;;8.38;3.80;;;;;;;-9.10;73.73;101162.31;5018600;28;20052;-58
2023/12/11 07:36:26;;;;;;;6.18;2.92;;;;;;;-9.10;73.86;101158.91;5029235;28;20138;-58
2023/12/11 07:38:58;;;;;;;6.05;3.50;;;;;;;-8.92;74.73;101155.22;5018951;28;20053;-58
2023/12/11 07:41:29;;;;;;;8.45;4.53;;;;;;;-8.75;75.96;101159.91;5018973;28;20051;-58
2023/12/11 07:43:59;;;;;;;11.70;4.70;;;;;;;-8.61;75.65;101167.66;5028271;28;20052;-58
2023/12/11 07:46:31;;;;;;;13.63;5.43;;;;;;;-8.58;74.94;101165.38;5018757;28;20055;-58
2023/12/11 07:49:02;;;;;;;20.70;7.85;;;;;;;-8.69;73.78;101159.47;5029187;28;20092;-58
2023/12/11 07:51:33;;;;;;;12.02;5.00;;;;;;;-8.83;73.61;101161.00;5018953;28;20052;-58
2023/12/11 07:54:05;;;;;;;6.28;3.60;;;;;;;-8.95;73.56;101160.94;5029988;28;20060;-58
2023/12/11 07:56:37;;;;;;;9.90;3.50;;;;;;;-8.72;74.60;101155.06;5036369;28;20098;-58
2023/12/11 07:59:07;;;;;;;13.90;4.43;;;;;;;-8.85;73.56;101142.25;5047443;28;20049;-58
2023/12/11 08:01:38;;;;;;;6.13;3.38;;;;;;;-8.79;73.44;101157.91;5036690;28;20070;-58
2023/12/11 08:04:09;;;;;;;9.85;4.07;;;;;;;-8.86;72.95;101145.59;5047127;28;20062;-58
2023/12/11 08:06:42;;;;;;;11.52;4.57;;;;;;;-8.86;72.97;101155.72;5036775;28;20143;-58
2023/12/11 08:09:14;;;;;;;9.98;5.13;;;;;;;-8.78;72.92;101158.81;5046917;28;20049;-58
2023/12/11 08:11:45;;;;;;;10.18;4.57;;;;;;;-8.77;72.41;101161.44;5034877;28;20083;-58
2023/12/11 08:14:16;;;;;;;9.02;3.92;;;;;;;-8.85;72.07;101152.41;5045908;28;20155;-58
2023/12/11 08:16:47;;;;;;;6.45;2.95;;;;;;;-8.84;72.19;101149.09;5035225;28;20063;-58
2023/12/11 08:19:17;;;;;;;7.72;2.83;;;;;;;-8.91;71.80;101146.84;5043492;28;20052;-58
2023/12/11 08:21:48;;;;;;;5.35;2.63;;;;;;;-8.79;72.17;101165.50;5035671;28;20129;-58
2023/12/11 08:24:20;;;;;;;6.88;2.80;;;;;;;-8.82;71.84;101157.69;5047016;28;20208;-58
2023/12/11 08:26:51;;;;;;;7.47;3.47;;;;;;;-8.76;72.33;101163.22;5036385;28;20105;-58
2023/12/11 08:29:23;;;;;;;8.77;3.33;;;;;;;-8.88;72.40;101136.06;5045812;28;20513;-58
2023/12/11 08:31:53;;;;;;;4.68;2.72;;;;;;;-8.60;72.67;101154.25;5035167;28;20048;-57
2023/12/11 08:34:24;;;;;;;6.70;2.53;;;;;;;-8.53;72.70;101162.41;5045651;28;20110;-58
2023/12/11 08:36:54;;;;;;;8.85;4.28;;;;;;;-8.53;72.44;101166.59;5034708;28;20059;-58
2023/12/11 08:39:27;;;;;;;8.98;4.00;;;;;;;-8.51;72.27;101162.50;5045288;28;20067;-59
2023/12/11 08:41:58;;;;;;;6.07;2.63;;;;;;;-8.56;72.23;101161.28;5035624;28;20159;-58
2023/12/11 08:44:28;;;;;;;4.45;2.78;;;;;;;-8.54;72.42;101170.75;5035809;28;20060;-58
2023/12/11 08:46:59;;;;;;;5.90;3.03;;;;;;;-8.30;73.53;101176.72;5046013;28;20738;-58
2023/12/11 08:49:29;;;;;;;4.93;2.70;;;;;;;-8.30;72.51;101170.78;5036107;28;20058;-58
2023/12/11 08:52:00;;;;;;;7.00;3.00;;;;;;;-8.31;72.90;101174.97;5045092;28;20183;-59
2023/12/11 08:54:32;;;;;;;6.47;3.13;;;;;;;-8.31;72.60;101169.91;5034665;28;20112;-58
2023/12/11 08:57:03;;;;;;;6.95;2.60;;;;;;;-8.41;72.48;101171.66;5045555;28;20134;-58
2023/12/11 08:59:33;;;;;;;6.05;3.00;;;;;;;-8.39;73.29;101170.97;5035138;28;20056;-58
2023/12/11 09:02:04;;;;;;;6.55;3.08;;;;;;;-8.31;73.67;101169.91;5046147;28;20053;-58
2023/12/11 09:04:36;;;;;;;4.90;2.60;;;;;;;-8.26;73.72;101163.53;5035301;28;20463;-58
2023/12/11 09:07:09;;;;;;;3.85;2.65;;;;;;;-8.20;73.97;101162.22;5045499;28;20114;-58
2023/12/11 09:09:42;;;;;;;6.40;2.38;;;;;;;-8.23;73.84;101167.06;5034417;28;21281;-58
2023/12/11 09:12:12;;;;;;;7.30;3.00;;;;;;;-8.32;73.79;101165.59;5038893;28;20052;-58
2023/12/11 09:14:59;;;;;;;5.40;2.65;;;;;;;-8.33;74.48;101163.84;5028608;28;20056;-58
2023/12/11 09:17:30;;;;;;;3.75;1.85;;;;;;;-8.22;75.35;101153.59;5032761;28;20047;-58
2023/12/11 09:20:04;;;;;;;4.97;2.75;;;;;;;-8.29;74.67;101158.22;5038914;28;20055;-58
2023/12/11 09:22:35;;;;;;;3.60;2.30;;;;;;;-8.44;74.49;101152.06;5028335;28;20135;-58
2023/12/11 09:38:55;;;;;;;14.50;6.30;;;;;;;-9.02;75.50;101137.59;4908233;23;20411;-57
2023/12/11 09:41:29;;;;;;;11.50;4.20;;;;;;;-8.96;76.16;101135.50;4851898;29;20360;-56
2023/12/11 09:44:02;;;;;;;5.05;2.50;;;;;;;-8.95;76.15;101130.56;4869873;29;20269;-57
2023/12/11 09:46:39;;;;;;;7.10;2.10;;;;;;;-8.92;75.83;101124.84;4850080;29;20089;-57
2023/12/11 09:49:10;;;;;;;3.88;1.98;;;;;;;-8.90;75.51;101134.31;4851247;29;21519;-56
2023/12/11 09:51:42;;;;;;;6.55;2.10;;;;;;;-8.80;75.71;101130.81;4856294;29;20151;-57
2023/12/11 09:54:15;;;;;;;6.07;2.65;;;;;;;-8.77;75.27;101131.06;4868180;29;20056;-57
2023/12/11 09:56:46;;;;;;;6.47;2.33;;;;;;;-8.80;74.85;101125.75;4856828;29;20060;-57
2023/12/11 09:59:17;;;;;;;6.00;1.98;;;;;;;-8.77;74.96;101131.06;4868166;29;20564;-57
2023/12/11 10:01:49;;;;;;;4.90;1.83;;;;;;;-8.75;74.98;101121.03;4858918;29;20546;-57
2023/12/11 10:04:20;;;;;;;6.00;2.20;;;;;;;-8.87;74.33;101123.53;4857666;29;20068;-57
2023/12/11 10:06:53;;;;;;;5.38;2.13;;;;;;;-9.43;74.00;101037.50;4867876;29;20048;-57
2023/12/11 10:09:33;;;;;;;5.85;2.88;;;;;;;-8.84;73.92;101118.69;4857744;29;20044;-57
2023/12/11 10:12:06;;;;;;;3.63;2.15;;;;;;;-8.81;73.89;101126.53;4867849;29;20059;-57
2023/12/11 10:14:37;;;;;;;3.60;2.08;;;;;;;-8.83;74.16;101125.53;4857477;29;20722;-57
2023/12/11 10:17:18;;;;;;;3.40;2.08;;;;;;;-8.83;73.92;101120.47;4868192;29;20061;-57
2023/12/11 10:19:49;;;;;;;6.20;2.28;;;;;;;-8.92;73.70;101124.84;4858519;29;20053;-58
2023/12/11 10:22:29;;;;;;;9.23;2.50;;;;;;;-8.78;73.77;101126.75;4857902;29;20176;-57
2023/12/11 10:25:02;;;;;;;6.67;2.03;;;;;;;-8.71;73.53;101123.91;4867593;29;20052;-58
2023/12/11 10:27:33;;;;;;;3.13;1.75;;;;;;;-8.70;73.47;101123.13;4856759;29;21194;-58
2023/12/11 10:30:12;;;;;;;4.25;2.00;;;;;;;-8.70;73.02;101128.22;4867586;29;20353;-57
2023/12/11 10:32:43;;;;;;;9.40;1.90;;;;;;;-8.66;72.84;101139.47;4855425;29;20052;-57
2023/12/11 10:35:25;;;;;;;4.53;2.20;;;;;;;-8.57;72.70;101146.84;4866614;29;20405;-58
2023/12/11 10:38:01;;;;;;;9.02;3.83;;;;;;;-8.51;73.03;101154.91;4857477;29;20091;-57
2023/12/11 10:40:41;;;;;;;13.32;5.03;;;;;;;-8.43;73.41;101151.31;4858207;29;20049;-58
2023/12/11 10:43:12;;;;;;;16.25;5.22;;;;;;;-8.45;73.16;101145.22;4867417;29;20056;-57
2023/12/11 10:45:43;;;;;;;11.55;4.22;;;;;;;-8.44;72.74;101141.91;4857244;29;20112;-57
2023/12/11 10:48:16;;;;;;;10.98;3.28;;;;;;;-8.38;72.51;101141.47;4866015;29;20455;-58
2023/12/11 10:50:48;;;;;;;12.02;3.95;;;;;;;-8.45;72.26;101140.16;4856425;29;20078;-57
2023/12/11 10:53:18;;;;;;;10.85;3.72;;;;;;;-8.43;72.50;101148.75;4863882;29;20114;-57
2023/12/11 10:55:52;;;;;;;15.05;5.43;;;;;;;-8.21;73.26;101165.50;4866741;29;20057;-57
2023/12/11 10:58:25;;;;;;;6.85;2.55;;;;;;;-8.04;73.63;101160.00;4856352;29;20056;-57
2023/12/11 11:00:59;;;;;;;3.13;1.60;;;;;;;-7.77;74.40;101160.22;4865771;29;20052;-57
2023/12/11 11:03:31;;;;;;;5.05;2.38;;;;;;;-7.72;73.57;101159.75;4855701;29;20048;-57
2023/12/11 11:06:02;;;;;;;5.68;2.00;;;;;;;-7.84;72.44;101157.25;4865836;29;20080;-58
2023/12/11 11:08:39;;;;;;;4.93;1.63;;;;;;;-7.88;72.36;101156.94;4855824;29;20151;-57
2023/12/11 11:11:23;;;;;;;6.65;2.10;;;;;;;-7.83;72.47;101155.59;4865307;29;20053;-56
2023/12/11 11:14:15;;;;;;;3.75;2.00;;;;;;;-7.94;71.40;101162.41;4855169;29;20159;-57
2023/12/11 11:16:56;;;;;;;5.40;1.67;;;;;;;-7.97;71.40;101157.13;4855656;29;20116;-57
2023/12/11 11:19:27;;;;;;;6.22;1.85;;;;;;;-7.94;71.45;101147.19;4855343;29;20458;-57
2023/12/11 11:22:24;;;;;;;4.05;1.98;;;;;;;-7.84;71.95;101149.66;4864895;29;20064;-57
2023/12/11 11:25:32;;;;;;;4.05;1.83;;;;;;;-7.58;73.17;101148.06;4865372;29;20061;-57
2023/12/11 11:28:05;;;;;;;3.55;1.60;;;;;;;-7.45;72.66;101150.69;4864631;29;20067;-58
2023/12/11 11:30:51;;;;;;;3.70;1.60;;;;;;;-7.56;71.86;101141.44;4855693;29;20057;-57
2023/12/11 11:33:22;;;;;;;4.70;2.13;;;;;;;-7.72;71.82;101153.81;4855445;29;20064;-58
2023/12/11 11:35:53;;;;;;;3.67;1.80;;;;;;;-8.03;72.04;101111.06;4864903;29;20052;-57
2023/12/11 11:38:53;;;;;;;4.93;1.92;;;;;;;-7.83;72.76;101141.25;4854567;29;20069;-57
2023/12/11 11:41:28;;;;;;;3.10;1.65;;;;;;;-8.11;73.36;101079.16;4854932;29;20581;-57
2023/12/11 11:44:04;;;;;;;3.90;1.83;;;;;;;-7.88;73.15;101132.44;4864792;29;20838;-58
2023/12/11 11:46:50;;;;;;;5.60;2.35;;;;;;;-7.82;73.32;101120.16;4856264;29;20053;-57
2023/12/11 11:49:33;;;;;;;6.68;1.90;;;;;;;-7.94;73.40;101121.84;4855524;29;20067;-57
2023/12/11 11:52:10;;;;;;;6.68;2.13;;;;;;;-8.85;73.48;100982.69;4864753;29;20108;-58
2023/12/11 11:54:42;;;;;;;6.28;2.17;;;;;;;-8.28;73.58;101119.44;4854692;29;21408;-58
2023/12/11 11:57:14;;;;;;;4.55;1.90;;;;;;;-8.40;74.14;101108.44;4865202;29;20115;-58
2023/12/11 11:59:47;;;;;;;5.93;1.77;;;;;;;-8.45;74.59;101114.81;4855049;29;20442;-58
2023/12/11 12:02:23;;;;;;;6.68;1.70;;;;;;;-8.42;75.17;101119.22;4864563;29;20048;-57